Time;durP1;ratioP1;P1;durP2;ratioP2;P2;SDS_P1;SDS_P2;PMS_P1;PMS_P2;Temp;Humidity;BMP_temperature;BMP_pressure;BME280_temperature;BME280_humidity;BME280_pressure;Samples;Min_cycle;Max_cycle;Signal;HPM_P1;HPM_P2
2024/01/20 00:01:45;;;;;;;3.15;2.22;;;;;;;2.53;59.50;94788.78;5030868;28;20029;-77
2024/01/20 00:04:11;;;;;;;2.20;1.80;;;;;;;2.49;59.21;94782.56;5030945;28;20041;-77
2024/01/20 00:06:36;;;;;;;3.67;2.28;;;;;;;2.44;59.20;94791.88;5031193;28;20418;-76
2024/01/20 00:09:02;;;;;;;3.33;1.90;;;;;;;2.39;59.31;94808.53;5030559;28;20045;-76
2024/01/20 00:11:27;;;;;;;2.45;1.80;;;;;;;2.26;59.48;94807.38;5030841;28;20025;-76
2024/01/20 00:13:53;;;;;;;2.13;1.63;;;;;;;2.24;59.72;94796.16;5030640;28;20037;-77
2024/01/20 00:16:18;;;;;;;2.20;1.80;;;;;;;2.23;59.54;94805.41;5030366;28;20049;-76
2024/01/20 00:18:44;;;;;;;1.70;1.55;;;;;;;2.19;59.46;94804.66;5030743;28;20022;-76
2024/01/20 00:21:09;;;;;;;2.13;1.60;;;;;;;2.16;59.42;94808.91;5030746;28;20423;-77
2024/01/20 00:23:37;;;;;;;5.30;1.85;;;;;;;2.11;59.53;94818.19;5030628;28;20116;-77
2024/01/20 00:26:02;;;;;;;4.53;2.70;;;;;;;2.09;59.46;94820.53;5030355;28;20036;-77
2024/01/20 00:28:28;;;;;;;1.85;1.63;;;;;;;2.08;59.39;94818.97;5030541;28;20037;-77
2024/01/20 00:30:54;;;;;;;2.50;1.85;;;;;;;2.03;59.61;94830.19;5030461;28;20076;-77
2024/01/20 00:33:19;;;;;;;2.13;1.73;;;;;;;2.10;59.56;94843.75;5030585;28;20022;-77
2024/01/20 00:35:45;;;;;;;4.50;1.90;;;;;;;2.11;59.60;94839.88;5030742;28;20550;-77
2024/01/20 00:38:11;;;;;;;3.08;1.65;;;;;;;2.11;59.29;94839.88;5030255;28;20018;-77
2024/01/20 00:40:36;;;;;;;2.08;1.52;;;;;;;2.17;59.27;94853.06;5030941;28;20109;-76
2024/01/20 00:43:02;;;;;;;2.45;1.58;;;;;;;2.20;59.02;94850.38;5035391;28;20061;-77
2024/01/20 00:45:27;;;;;;;2.38;1.85;;;;;;;2.23;59.00;94848.81;5030348;28;20101;-76
2024/01/20 00:47:53;;;;;;;2.30;1.73;;;;;;;2.22;59.06;94849.97;5048962;28;20033;-76
2024/01/20 00:50:18;;;;;;;2.72;1.92;;;;;;;2.18;59.33;94855.41;5048994;28;20096;-76
2024/01/20 00:52:43;;;;;;;1.85;1.50;;;;;;;2.23;59.07;94863.16;5026335;28;20057;-76
2024/01/20 00:55:10;;;;;;;3.33;1.70;;;;;;;2.20;58.83;94866.66;5027181;28;20080;-76
2024/01/20 00:57:35;;;;;;;2.30;1.63;;;;;;;2.16;59.05;94875.94;5027710;28;20035;-76
2024/01/20 01:00:04;;;;;;;2.78;1.70;;;;;;;2.19;58.81;94886.81;5026955;28;20471;-76
2024/01/20 01:02:29;;;;;;;1.92;1.63;;;;;;;2.13;58.84;94880.97;5040838;28;20033;-76
2024/01/20 01:04:55;;;;;;;2.13;1.60;;;;;;;2.05;59.43;94878.63;5045297;28;20065;-76
2024/01/20 01:07:21;;;;;;;2.13;1.70;;;;;;;2.09;59.58;94882.13;5047234;28;20086;-76
2024/01/20 01:09:48;;;;;;;2.10;1.67;;;;;;;2.14;59.53;94879.03;5046938;28;20664;-76
2024/01/20 01:12:14;;;;;;;2.50;1.52;;;;;;;2.19;58.94;94884.09;5035862;28;20116;-76
2024/01/20 01:14:39;;;;;;;2.22;1.70;;;;;;;2.25;58.64;94889.91;5026965;28;20063;-76
2024/01/20 01:17:06;;;;;;;1.90;1.30;;;;;;;2.20;58.26;94882.16;5026380;28;20042;-77
2024/01/20 01:19:31;;;;;;;2.10;1.50;;;;;;;2.07;58.34;94892.59;5027160;28;20586;-76
2024/01/20 01:21:57;;;;;;;2.33;1.70;;;;;;;2.04;59.08;94890.63;5044185;28;20028;-76
2024/01/20 01:24:22;;;;;;;2.58;1.63;;;;;;;1.99;59.48;94897.19;5046698;28;20515;-76
2024/01/20 01:26:48;;;;;;;2.50;1.58;;;;;;;1.95;60.14;94895.63;5046389;28;20029;-76
2024/01/20 01:29:13;;;;;;;2.33;1.95;;;;;;;2.01;59.76;94913.09;5044503;28;20032;-75
2024/01/20 01:31:38;;;;;;;2.72;1.88;;;;;;;1.97;59.97;94896.81;5046825;28;20480;-78
2024/01/20 01:34:04;;;;;;;2.45;1.50;;;;;;;2.00;60.10;94903.38;5046342;28;20029;-75
2024/01/20 01:36:29;;;;;;;2.50;1.77;;;;;;;1.99;59.91;94904.56;5046664;28;20472;-76
2024/01/20 01:38:54;;;;;;;2.08;1.80;;;;;;;1.93;60.67;94901.44;5044377;28;20025;-76
2024/01/20 01:41:20;;;;;;;2.22;1.70;;;;;;;1.90;61.35;94906.84;5031560;28;20029;-76
2024/01/20 01:43:45;;;;;;;2.58;1.90;;;;;;;1.90;61.71;94898.72;5026780;28;20033;-76
2024/01/20 01:46:11;;;;;;;1.95;1.58;;;;;;;1.97;62.04;94885.97;5026015;28;20030;-77
2024/01/20 01:48:36;;;;;;;2.53;2.00;;;;;;;2.00;62.03;94890.59;5026542;28;20027;-77
2024/01/20 01:51:04;;;;;;;2.83;2.08;;;;;;;2.10;62.38;94889.09;5036270;28;20048;-76
2024/01/20 01:53:31;;;;;;;2.75;1.75;;;;;;;2.11;61.99;94883.28;5026790;28;20029;-76
2024/01/20 01:55:58;;;;;;;2.28;1.70;;;;;;;2.14;62.33;94900.72;5024248;28;20467;-76
2024/01/20 01:58:25;;;;;;;2.63;1.80;;;;;;;2.10;62.71;94913.50;5030188;28;20036;-75
2024/01/20 02:00:51;;;;;;;3.15;1.65;;;;;;;2.10;62.88;94908.84;5040719;28;20057;-76
2024/01/20 02:03:16;;;;;;;2.42;1.98;;;;;;;2.07;63.34;94909.63;5024204;28;20455;-76
2024/01/20 02:05:42;;;;;;;2.35;1.75;;;;;;;2.08;63.58;94908.47;5041738;28;20043;-76
2024/01/20 02:08:07;;;;;;;2.60;1.70;;;;;;;2.08;63.39;94913.88;5045535;28;20419;-76
2024/01/20 02:10:33;;;;;;;2.15;1.40;;;;;;;2.02;63.14;94901.09;5045737;28;20049;-76
2024/01/20 02:13:00;;;;;;;2.60;1.65;;;;;;;2.02;62.88;94898.38;5044193;28;20427;-76
2024/01/20 02:15:26;;;;;;;1.85;1.55;;;;;;;2.03;62.84;94891.78;5033831;28;20561;-75
2024/01/20 02:17:53;;;;;;;2.05;1.60;;;;;;;1.90;63.08;94890.59;5023928;28;20518;-76
2024/01/20 02:20:19;;;;;;;2.97;1.80;;;;;;;1.92;63.03;94897.16;5026797;28;20428;-77
2024/01/20 02:22:44;;;;;;;2.22;1.60;;;;;;;1.87;62.47;94900.25;5043954;28;20503;-77
2024/01/20 02:25:10;;;;;;;2.00;1.40;;;;;;;1.83;62.77;94902.94;5038677;28;20037;-77
2024/01/20 02:27:35;;;;;;;1.85;1.27;;;;;;;1.82;62.64;94908.75;5036564;28;20029;-76
2024/01/20 02:30:01;;;;;;;2.08;1.42;;;;;;;1.79;62.25;94901.38;5025237;28;20056;-75
2024/01/20 02:32:26;;;;;;;2.38;1.50;;;;;;;1.73;61.99;94909.09;5025582;28;20022;-77
2024/01/20 02:34:52;;;;;;;3.20;1.45;;;;;;;1.72;61.97;94914.88;5024904;28;20036;-76
2024/01/20 02:37:17;;;;;;;1.10;0.95;;;;;;;1.70;61.12;94920.69;5025786;28;20025;-76
2024/01/20 02:39:43;;;;;;;1.55;1.10;;;;;;;1.68;61.33;94928.44;5040135;28;20039;-77
2024/01/20 02:42:10;;;;;;;1.70;1.17;;;;;;;1.58;61.29;94934.56;5045009;28;20045;-76
2024/01/20 02:44:37;;;;;;;1.83;1.13;;;;;;;1.58;61.50;94935.34;5045104;28;20075;-76
2024/01/20 02:47:02;;;;;;;1.50;1.15;;;;;;;1.59;60.73;94955.88;5045067;28;20116;-76
2024/01/20 02:49:28;;;;;;;1.58;1.02;;;;;;;1.55;60.50;94954.31;5035601;28;20112;-76
2024/01/20 02:51:53;;;;;;;2.53;1.50;;;;;;;1.56;60.04;94970.19;5024759;28;20033;-77
2024/01/20 02:54:18;;;;;;;1.63;1.20;;;;;;;1.51;60.21;94980.59;5025122;28;20033;-77
2024/01/20 02:56:44;;;;;;;2.55;1.40;;;;;;;1.47;60.44;94974.38;5032929;28;20108;-76
2024/01/20 02:59:09;;;;;;;2.05;1.10;;;;;;;1.45;60.69;94976.69;5044713;28;20025;-76
2024/01/20 03:01:35;;;;;;;2.65;1.58;;;;;;;1.40;60.56;94975.09;5044677;28;20475;-76
2024/01/20 03:04:00;;;;;;;1.63;1.20;;;;;;;1.35;61.04;94971.97;5044624;28;20029;-77
2024/01/20 03:06:25;;;;;;;2.17;1.60;;;;;;;1.27;61.10;94977.34;5043414;28;20070;-75
2024/01/20 03:08:51;;;;;;;1.67;1.20;;;;;;;1.27;61.22;94971.94;5033142;28;20030;-76
2024/01/20 03:11:17;;;;;;;1.92;1.33;;;;;;;1.29;61.32;94982.38;5025679;28;20018;-75
2024/01/20 03:13:43;;;;;;;1.77;1.20;;;;;;;1.16;61.79;94990.03;5024578;28;20083;-75
2024/01/20 03:16:09;;;;;;;1.98;1.30;;;;;;;1.16;62.19;94983.84;5023890;28;20033;-77
2024/01/20 03:18:37;;;;;;;1.17;1.02;;;;;;;1.10;62.77;94999.66;5024737;28;20018;-76
2024/01/20 03:21:03;;;;;;;2.83;1.38;;;;;;;1.10;63.20;95009.69;5025256;28;20101;-75
2024/01/20 03:23:28;;;;;;;1.50;1.13;;;;;;;1.05;64.00;95008.88;5044838;28;20063;-76
2024/01/20 03:25:54;;;;;;;1.17;1.05;;;;;;;0.99;64.45;95012.31;5044366;28;20108;-75
2024/01/20 03:28:19;;;;;;;1.80;1.20;;;;;;;0.91;64.46;95026.91;5045445;28;20441;-76
2024/01/20 03:30:45;;;;;;;1.58;1.20;;;;;;;0.87;65.21;95031.53;5045663;28;20405;-77
2024/01/20 03:33:10;;;;;;;3.70;1.27;;;;;;;0.86;65.70;95038.88;5030115;28;20042;-76
2024/01/20 03:35:35;;;;;;;1.08;0.93;;;;;;;0.77;66.13;95044.56;5026135;28;20464;-78
2024/01/20 03:38:01;;;;;;;1.65;1.20;;;;;;;0.75;66.19;95043.41;5044124;28;20036;-76
2024/01/20 03:40:26;;;;;;;1.50;1.17;;;;;;;0.77;66.27;95038.38;5044654;28;20029;-76
2024/01/20 03:42:51;;;;;;;1.13;0.95;;;;;;;0.78;66.46;95037.25;5044446;28;20032;-76
2024/01/20 03:45:17;;;;;;;1.70;1.10;;;;;;;0.74;65.98;95041.81;5036782;28;20120;-76
2024/01/20 03:47:42;;;;;;;1.83;1.30;;;;;;;0.68;66.53;95030.56;5024251;28;20026;-76
2024/01/20 03:50:09;;;;;;;1.42;1.08;;;;;;;0.69;67.05;95037.53;5024544;28;20501;-76
2024/01/20 03:52:34;;;;;;;1.35;1.08;;;;;;;0.73;66.70;95046.47;5024488;28;20034;-76
2024/01/20 03:55:00;;;;;;;1.23;1.00;;;;;;;0.78;66.78;95053.47;5025540;28;20048;-76
2024/01/20 03:57:25;;;;;;;1.63;1.30;;;;;;;0.81;66.87;95057.38;5043944;28;20078;-77
2024/01/20 03:59:50;;;;;;;1.33;0.98;;;;;;;0.85;66.28;95058.19;5044181;28;20029;-77
2024/01/20 04:02:16;;;;;;;1.00;0.82;;;;;;;0.85;66.78;95060.88;5043889;28;20057;-76
2024/01/20 04:04:41;;;;;;;1.08;0.93;;;;;;;0.80;66.54;95056.56;5034678;28;20482;-77
2024/01/20 04:07:06;;;;;;;2.42;1.15;;;;;;;0.79;67.17;95066.63;5023898;28;20029;-75
2024/01/20 04:09:32;;;;;;;1.25;1.00;;;;;;;0.79;67.51;95063.91;5023875;28;20068;-76
2024/01/20 04:11:57;;;;;;;1.10;1.00;;;;;;;0.76;66.82;95072.78;5031370;28;20037;-76
2024/01/20 04:14:23;;;;;;;1.83;1.20;;;;;;;0.70;67.09;95068.09;5041900;28;20491;-75
2024/01/20 04:16:48;;;;;;;3.33;1.10;;;;;;;0.71;67.15;95081.25;5044201;28;20045;-76
2024/01/20 04:19:13;;;;;;;1.20;1.05;;;;;;;0.66;67.48;95089.69;5027997;28;20468;-77
2024/01/20 04:21:39;;;;;;;1.27;0.90;;;;;;;0.67;67.60;95090.47;5024020;28;20164;-77
2024/01/20 04:24:05;;;;;;;2.92;1.20;;;;;;;0.57;67.99;95083.78;5023848;28;20036;-76
2024/01/20 04:26:30;;;;;;;1.35;0.90;;;;;;;0.62;68.27;95093.50;5025626;28;20025;-76
2024/01/20 04:28:56;;;;;;;1.15;0.90;;;;;;;0.65;68.13;95101.66;5036112;28;20185;-77
2024/01/20 04:31:21;;;;;;;1.58;0.73;;;;;;;0.69;67.73;95109.81;5047357;28;20020;-76
2024/01/20 04:33:46;;;;;;;4.90;1.15;;;;;;;0.67;67.20;95107.47;5047660;28;20025;-76
2024/01/20 04:36:12;;;;;;;1.98;1.20;;;;;;;0.63;67.59;95108.56;5047688;28;20051;-76
2024/01/20 04:38:39;;;;;;;1.17;1.00;;;;;;;0.60;67.42;95112.81;5046188;28;20108;-77
2024/01/20 04:41:04;;;;;;;1.67;1.10;;;;;;;0.43;67.53;95110.66;5038344;28;20021;-76
2024/01/20 04:43:30;;;;;;;1.17;0.90;;;;;;;0.43;67.57;95116.06;5032985;28;20033;-76
2024/01/20 04:45:55;;;;;;;1.88;1.20;;;;;;;0.45;67.92;95124.59;5027568;28;20034;-75
2024/01/20 04:48:21;;;;;;;1.20;0.93;;;;;;;0.45;67.65;95124.59;5027009;28;20415;-75
2024/01/20 04:50:46;;;;;;;1.42;0.90;;;;;;;0.43;67.89;95124.97;5027778;28;20052;-77
2024/01/20 04:53:11;;;;;;;1.98;1.33;;;;;;;0.44;68.13;95131.16;5034762;28;20036;-76
2024/01/20 04:55:37;;;;;;;3.08;1.30;;;;;;;0.41;68.31;95138.09;5047324;28;20029;-77
2024/01/20 04:58:02;;;;;;;2.35;1.27;;;;;;;0.38;67.88;95122.56;5046749;28;20060;-77
2024/01/20 05:00:28;;;;;;;1.40;1.05;;;;;;;0.40;68.23;95139.22;5047250;28;20040;-77
2024/01/20 05:02:53;;;;;;;1.50;1.00;;;;;;;0.34;67.91;95143.38;5028740;28;20108;-77
2024/01/20 05:05:18;;;;;;;1.63;1.05;;;;;;;0.28;68.43;95134.03;5027234;28;20403;-77
2024/01/20 05:07:44;;;;;;;2.88;1.45;;;;;;;0.28;67.39;95138.66;5028289;28;20033;-76
2024/01/20 05:10:09;;;;;;;1.77;1.20;;;;;;;0.15;68.15;95130.75;5041036;28;20037;-76
2024/01/20 05:12:34;;;;;;;1.98;1.25;;;;;;;0.13;68.08;95143.88;5047381;28;20024;-77
2024/01/20 05:15:00;;;;;;;2.28;1.48;;;;;;;0.17;68.51;95143.91;5046505;28;20044;-76
2024/01/20 05:17:25;;;;;;;2.13;1.42;;;;;;;0.28;68.29;95154.88;5047154;28;20123;-75
2024/01/20 05:19:51;;;;;;;2.40;1.40;;;;;;;0.29;68.28;95156.44;5038286;28;20056;-77
2024/01/20 05:22:17;;;;;;;2.33;1.35;;;;;;;0.30;67.92;95152.59;5026669;28;20495;-77
2024/01/20 05:24:42;;;;;;;2.42;1.40;;;;;;;0.24;67.71;95158.31;5027019;28;20030;-77
2024/01/20 05:27:08;;;;;;;2.08;1.30;;;;;;;0.28;67.68;95158.38;5026363;28;20026;-76
2024/01/20 05:29:33;;;;;;;3.47;1.50;;;;;;;0.29;67.84;95157.25;5028827;28;20044;-75
2024/01/20 05:31:58;;;;;;;2.65;1.60;;;;;;;0.30;67.76;95158.78;5032840;28;20029;-75
2024/01/20 05:34:24;;;;;;;3.30;1.65;;;;;;;0.30;67.42;95158.03;5026749;28;20421;-75
2024/01/20 05:36:49;;;;;;;2.28;1.63;;;;;;;0.31;67.92;95167.69;5035701;28;20025;-76
2024/01/20 05:39:15;;;;;;;2.38;1.80;;;;;;;0.32;67.78;95174.66;5039510;28;20565;-77
2024/01/20 05:41:40;;;;;;;1.90;1.27;;;;;;;0.29;67.49;95159.94;5024968;28;20029;-77
2024/01/20 05:44:06;;;;;;;2.05;1.20;;;;;;;0.32;67.46;95167.31;5026238;28;20533;-79
2024/01/20 05:46:32;;;;;;;2.53;1.50;;;;;;;0.37;66.43;95168.94;5026755;28;20676;-77
2024/01/20 05:48:57;;;;;;;2.78;1.70;;;;;;;0.33;66.73;95168.88;5026276;28;20025;-77
2024/01/20 05:51:23;;;;;;;4.88;1.77;;;;;;;0.30;67.54;95168.84;5032167;28;20099;-78
2024/01/20 05:53:48;;;;;;;1.55;1.27;;;;;;;0.34;67.25;95169.66;5026133;28;20378;-78
2024/01/20 05:56:13;;;;;;;2.70;1.45;;;;;;;0.41;66.60;95173.25;5026173;28;20021;-77
2024/01/20 05:58:39;;;;;;;1.95;1.40;;;;;;;0.35;66.37;95176.63;5027145;28;20090;-78
2024/01/20 06:01:04;;;;;;;2.80;1.85;;;;;;;0.36;66.94;95175.50;5029452;28;20021;-78
2024/01/20 06:03:30;;;;;;;1.63;1.27;;;;;;;0.37;66.68;95177.03;5046516;28;20036;-76
2024/01/20 06:05:56;;;;;;;1.90;1.30;;;;;;;0.30;66.69;95168.84;5044679;28;20025;-77
2024/01/20 06:08:21;;;;;;;2.83;1.67;;;;;;;0.32;66.98;95188.16;5044505;28;20029;-79
2024/01/20 06:10:47;;;;;;;3.33;1.65;;;;;;;0.25;67.50;95183.44;5045684;28;20028;-78
2024/01/20 06:13:12;;;;;;;4.22;1.60;;;;;;;0.21;68.18;95179.91;5038923;28;20033;-78
2024/01/20 06:15:37;;;;;;;1.92;1.30;;;;;;;0.24;67.71;95198.91;5034606;28;20467;-79
2024/01/20 06:18:03;;;;;;;2.15;1.35;;;;;;;0.32;67.60;95193.56;5045714;28;20629;-77
2024/01/20 06:20:29;;;;;;;2.17;1.38;;;;;;;0.32;67.68;95202.47;5046012;28;20036;-78
2024/01/20 06:22:54;;;;;;;3.65;1.73;;;;;;;0.36;67.56;95200.59;5044299;28;20033;-79
2024/01/20 06:25:19;;;;;;;2.55;1.40;;;;;;;0.38;66.69;95197.53;5045927;28;20072;-78
2024/01/20 06:27:45;;;;;;;1.60;1.40;;;;;;;0.31;66.74;95202.84;5029155;28;20030;-79
2024/01/20 06:30:11;;;;;;;2.53;1.35;;;;;;;0.29;66.85;95205.13;5025335;28;20026;-79
2024/01/20 06:32:36;;;;;;;3.53;1.33;;;;;;;0.19;67.63;95212.72;5026053;28;20041;-80
2024/01/20 06:35:02;;;;;;;2.92;1.52;;;;;;;0.22;67.21;95222.00;5026353;28;20045;-77
2024/01/20 06:37:28;;;;;;;2.17;1.38;;;;;;;0.16;67.76;95218.84;5032702;28;20535;-78
2024/01/20 06:39:53;;;;;;;2.83;1.55;;;;;;;0.18;67.97;95219.28;5043595;28;20104;-78
2024/01/20 06:42:19;;;;;;;1.42;1.17;;;;;;;0.14;67.42;95223.06;5045194;28;20025;-77
2024/01/20 06:44:44;;;;;;;1.88;1.48;;;;;;;0.04;67.37;95229.06;5045173;28;20100;-77
2024/01/20 06:47:11;;;;;;;2.42;1.50;;;;;;;0.01;68.24;95233.28;5028569;28;20044;-79
2024/01/20 06:49:39;;;;;;;2.78;1.50;;;;;;;0.09;68.12;95240.38;5025111;28;20623;-78
2024/01/20 06:52:05;;;;;;;3.42;1.50;;;;;;;0.07;68.23;95231.84;5025059;28;20511;-78
2024/01/20 06:54:31;;;;;;;3.28;2.05;;;;;;;0.21;67.79;95242.09;5025143;28;20033;-79
2024/01/20 06:56:56;;;;;;;2.83;1.35;;;;;;;0.20;66.96;95237.84;5030186;28;20025;-78
2024/01/20 06:59:21;;;;;;;1.98;1.40;;;;;;;0.17;67.25;95239.34;5026413;28;20092;-80
2024/01/20 07:01:47;;;;;;;2.13;1.40;;;;;;;0.08;67.04;95233.41;5025398;28;20033;-78
2024/01/20 07:04:12;;;;;;;3.47;1.70;;;;;;;0.15;66.97;95254.34;5025968;28;20483;-79
2024/01/20 07:06:38;;;;;;;2.50;1.55;;;;;;;0.20;67.17;95260.25;5029026;28;20525;-78
2024/01/20 07:09:05;;;;;;;3.50;1.80;;;;;;;0.18;67.11;95259.84;5045142;28;20552;-79
2024/01/20 07:11:31;;;;;;;2.45;1.63;;;;;;;0.22;67.39;95262.56;5036896;28;20025;-79
2024/01/20 07:13:57;;;;;;;3.30;1.25;;;;;;;0.14;66.93;95263.63;5024816;28;20123;-78
2024/01/20 07:16:23;;;;;;;3.88;1.60;;;;;;;0.16;67.21;95272.13;5029846;28;20037;-76
2024/01/20 07:18:48;;;;;;;3.90;2.15;;;;;;;0.17;67.57;95262.88;5044374;28;20544;-78
2024/01/20 07:21:13;;;;;;;3.80;1.70;;;;;;;0.24;67.21;95279.25;5043361;28;20100;-76
2024/01/20 07:23:39;;;;;;;3.17;1.77;;;;;;;0.28;66.96;95280.06;5044463;28;20499;-76
2024/01/20 07:26:04;;;;;;;3.53;2.30;;;;;;;0.22;66.93;95271.47;5044603;28;20445;-77
2024/01/20 07:28:30;;;;;;;3.38;1.65;;;;;;;0.28;66.57;95281.97;5042855;28;20108;-77
2024/01/20 07:30:55;;;;;;;3.03;1.67;;;;;;;0.28;66.47;95288.16;5042008;28;20143;-76
2024/01/20 07:33:21;;;;;;;5.88;2.15;;;;;;;0.24;66.60;95290.84;5041064;28;20036;-77
2024/01/20 07:35:46;;;;;;;4.30;1.75;;;;;;;0.25;66.80;95288.91;5037381;28;20112;-78
2024/01/20 07:38:12;;;;;;;4.95;2.40;;;;;;;0.21;66.69;95299.66;5024456;28;20116;-78
2024/01/20 07:40:39;;;;;;;2.75;1.45;;;;;;;0.21;65.71;95302.34;5024525;28;20034;-77
2024/01/20 07:43:05;;;;;;;3.05;1.80;;;;;;;0.16;66.47;95299.94;5024862;28;20078;-77
2024/01/20 07:45:31;;;;;;;2.75;1.55;;;;;;;0.16;66.98;95308.06;5024785;28;20532;-78
2024/01/20 07:48:00;;;;;;;4.53;2.45;;;;;;;0.26;66.22;95303.97;5025733;28;20506;-77
2024/01/20 07:50:25;;;;;;;2.75;2.00;;;;;;;0.19;66.65;95312.75;5035968;28;20511;-78
2024/01/20 07:52:51;;;;;;;3.35;2.28;;;;;;;0.27;66.72;95313.66;5042982;28;20059;-79
2024/01/20 07:55:16;;;;;;;4.53;2.60;;;;;;;0.29;66.07;95316.78;5044206;28;20033;-77
2024/01/20 07:57:41;;;;;;;4.20;2.35;;;;;;;0.33;65.71;95323.03;5044505;28;20033;-78
2024/01/20 08:00:09;;;;;;;3.05;2.03;;;;;;;0.30;65.93;95328.38;5042521;28;20413;-79
2024/01/20 08:02:34;;;;;;;5.35;2.35;;;;;;;0.31;66.38;95324.53;5047844;28;20016;-79
2024/01/20 08:05:01;;;;;;;2.95;1.95;;;;;;;0.33;66.31;95347.38;5048156;28;20089;-80
2024/01/20 08:07:26;;;;;;;4.53;2.28;;;;;;;0.39;66.25;95350.56;5046109;28;20535;-79
2024/01/20 08:09:51;;;;;;;4.97;3.10;;;;;;;0.34;65.23;95346.22;5047577;28;20123;-78
2024/01/20 08:12:17;;;;;;;5.05;2.97;;;;;;;0.33;65.51;95344.66;5037691;28;20021;-77
2024/01/20 08:14:42;;;;;;;5.07;2.75;;;;;;;0.30;65.59;95337.28;5029698;28;20029;-78
2024/01/20 08:17:08;;;;;;;3.83;2.38;;;;;;;0.29;65.71;95340.31;5027815;28;20405;-77
2024/01/20 08:19:33;;;;;;;4.10;2.30;;;;;;;0.31;65.94;95340.75;5028074;28;20161;-77
2024/01/20 08:21:58;;;;;;;3.28;2.30;;;;;;;0.24;65.89;95336.81;5028407;28;20025;-77
2024/01/20 08:24:24;;;;;;;4.82;2.60;;;;;;;0.26;66.14;95369.66;5028547;28;20037;-79
2024/01/20 08:26:49;;;;;;;3.63;2.47;;;;;;;0.28;65.72;95371.22;5028228;28;20032;-78
2024/01/20 08:29:15;;;;;;;3.90;2.20;;;;;;;0.32;65.94;95369.38;5027498;28;20111;-79
2024/01/20 08:31:40;;;;;;;4.57;2.40;;;;;;;0.31;66.24;95379.41;5028588;28;20426;-77
2024/01/20 08:34:07;;;;;;;4.05;2.83;;;;;;;0.24;66.32;95380.06;5028786;28;20029;-80
2024/01/20 08:36:32;;;;;;;3.20;2.40;;;;;;;0.36;66.46;95379.13;5035210;28;20032;-84
2024/01/20 08:38:57;;;;;;;6.28;2.67;;;;;;;0.34;66.89;95372.47;5049833;28;20037;-82
2024/01/20 08:41:23;;;;;;;4.32;2.65;;;;;;;0.44;66.26;95371.88;5058375;28;20451;-81
2024/01/20 08:43:49;;;;;;;6.25;2.72;;;;;;;0.38;64.72;95381.44;5067529;28;20407;-83
2024/01/20 08:46:15;;;;;;;5.32;3.20;;;;;;;0.49;65.10;95372.38;5068497;28;20032;-79
2024/01/20 08:48:40;;;;;;;7.22;4.18;;;;;;;0.56;64.61;95384.44;5065706;28;20029;-78
2024/01/20 08:51:06;;;;;;;5.43;3.65;;;;;;;0.55;64.58;95385.59;5060018;28;20056;-84
2024/01/20 08:53:33;;;;;;;6.57;4.15;;;;;;;0.56;64.88;95397.97;5049467;28;20037;-85
2024/01/20 08:55:59;;;;;;;6.97;4.35;;;;;;;0.63;64.46;95388.06;5048140;28;20029;-78
2024/01/20 08:58:25;;;;;;;7.15;4.70;;;;;;;0.61;63.75;95401.16;5028063;28;20480;-82
2024/01/20 09:00:50;;;;;;;6.20;4.00;;;;;;;0.59;64.04;95394.56;5046473;28;20124;-83
2024/01/20 09:03:16;;;;;;;7.32;4.93;;;;;;;0.58;64.92;95396.50;5044391;28;20021;-79
2024/01/20 09:05:41;;;;;;;6.50;4.25;;;;;;;0.63;64.38;95396.19;5037956;28;20041;-81
2024/01/20 09:08:09;;;;;;;8.40;4.57;;;;;;;0.61;63.51;95395.75;5026946;28;20100;-79
2024/01/20 09:10:36;;;;;;;6.68;4.60;;;;;;;0.61;64.02;95403.09;5028540;28;20025;-78
2024/01/20 09:13:02;;;;;;;7.30;4.72;;;;;;;0.63;64.77;95398.91;5037936;28;20523;-77
2024/01/20 09:15:27;;;;;;;6.53;4.45;;;;;;;0.64;64.07;95394.25;5026816;28;20033;-78
2024/01/20 09:17:53;;;;;;;5.72;4.40;;;;;;;0.68;63.28;95403.97;5036088;28;20044;-77
2024/01/20 09:20:19;;;;;;;9.63;6.15;;;;;;;0.74;63.15;95413.34;5046705;28;20420;-79
2024/01/20 09:22:45;;;;;;;7.30;4.95;;;;;;;0.84;62.43;95414.69;5047126;28;20036;-78
2024/01/20 09:25:11;;;;;;;7.80;5.10;;;;;;;0.81;62.43;95410.00;5046169;28;20494;-77
2024/01/20 09:27:36;;;;;;;8.52;5.45;;;;;;;0.86;62.27;95422.44;5047302;28;20035;-78
2024/01/20 09:30:02;;;;;;;11.02;5.70;;;;;;;0.84;61.79;95425.50;5038020;28;20452;-78
2024/01/20 09:32:30;;;;;;;8.02;4.75;;;;;;;0.86;61.48;95417.03;5042476;28;20037;-78
2024/01/20 09:34:56;;;;;;;7.28;5.00;;;;;;;0.77;61.19;95415.34;5060660;28;20032;-79
2024/01/20 09:37:21;;;;;;;9.00;6.28;;;;;;;0.70;62.47;95423.38;5066421;28;20038;-80
2024/01/20 09:39:46;;;;;;;7.55;4.95;;;;;;;0.74;61.97;95424.19;5067000;28;20020;-80
2024/01/20 09:42:12;;;;;;;8.73;5.68;;;;;;;0.72;62.32;95421.06;5066553;28;20025;-79
2024/01/20 09:44:37;;;;;;;8.82;6.22;;;;;;;0.80;62.00;95432.78;5067073;28;20094;-78
2024/01/20 09:47:03;;;;;;;11.50;5.93;;;;;;;0.85;61.67;95427.06;5064929;28;20031;-79
2024/01/20 09:49:28;;;;;;;9.80;5.95;;;;;;;0.90;61.24;95429.47;5065060;28;20043;-78
2024/01/20 09:51:59;;;;;;;9.68;6.90;;;;;;;0.86;62.21;95436.78;5063846;28;20513;-78
2024/01/20 09:54:24;;;;;;;8.60;6.28;;;;;;;0.89;62.40;95424.44;5044931;28;20040;-79
2024/01/20 09:56:50;;;;;;;11.95;7.28;;;;;;;0.91;61.37;95419.44;5045217;28;20036;-79
2024/01/20 09:59:17;;;;;;;11.88;6.97;;;;;;;0.95;61.40;95422.97;5046282;28;20104;-78
2024/01/20 10:01:43;;;;;;;10.40;6.53;;;;;;;0.95;61.66;95412.94;5045798;28;20075;-81
2024/01/20 10:04:08;;;;;;;13.75;7.70;;;;;;;0.84;61.98;95413.91;5044551;28;20028;-80
2024/01/20 10:06:34;;;;;;;14.45;7.63;;;;;;;0.93;62.25;95419.88;5037870;28;20075;-78
2024/01/20 10:08:59;;;;;;;13.52;7.10;;;;;;;0.98;61.75;95414.16;5026000;28;20420;-79
2024/01/20 10:11:25;;;;;;;8.02;6.35;;;;;;;0.99;61.20;95404.88;5026183;28;20080;-79
2024/01/20 10:13:51;;;;;;;10.88;6.43;;;;;;;0.94;61.25;95395.13;5026045;28;20462;-80
2024/01/20 10:16:17;;;;;;;11.77;6.53;;;;;;;0.93;60.95;95417.16;5025436;28;20054;-79
2024/01/20 10:18:43;;;;;;;10.63;7.18;;;;;;;0.94;61.28;95407.88;5025155;28;20144;-79
2024/01/20 10:21:09;;;;;;;10.35;6.53;;;;;;;0.81;61.82;95391.06;5025856;28;20029;-79
2024/01/20 10:23:36;;;;;;;12.05;7.30;;;;;;;0.97;61.33;95401.72;5025689;28;20029;-80
2024/01/20 10:26:02;;;;;;;14.27;8.18;;;;;;;0.96;61.58;95402.88;5025578;28;20022;-79
2024/01/20 10:28:27;;;;;;;11.90;7.10;;;;;;;1.00;61.16;95403.72;5024517;28;20053;-80
2024/01/20 10:30:53;;;;;;;10.80;7.43;;;;;;;1.03;61.27;95406.50;5025443;28;20516;-79
2024/01/20 10:33:19;;;;;;;11.40;7.22;;;;;;;1.11;61.26;95406.59;5025094;28;20029;-78
2024/01/20 10:35:44;;;;;;;9.00;6.57;;;;;;;1.13;61.31;95409.72;5025674;28;20033;-81
2024/01/20 10:38:13;;;;;;;10.10;7.10;;;;;;;1.15;60.66;95396.56;5025421;28;20025;-80
2024/01/20 10:40:41;;;;;;;9.70;6.95;;;;;;;1.14;61.26;95400.44;5027148;28;20037;-77
2024/01/20 10:43:14;;;;;;;9.15;6.57;;;;;;;1.11;60.84;95407.38;5025246;28;20077;-79
2024/01/20 10:46:00;;;;;;;12.82;7.68;;;;;;;1.10;61.63;95408.53;5025856;28;20491;-79
2024/01/20 10:48:27;;;;;;;9.50;6.18;;;;;;;1.09;61.05;95401.56;5025201;28;20049;-78
2024/01/20 10:50:58;;;;;;;11.18;7.25;;;;;;;1.08;61.40;95413.50;5007620;28;20022;-77
2024/01/20 10:53:26;;;;;;;11.10;6.75;;;;;;;1.06;62.06;95407.69;5025415;28;20098;-76
2024/01/20 10:55:51;;;;;;;11.57;7.68;;;;;;;1.00;62.10;95409.13;5025062;28;20108;-76
2024/01/20 10:58:20;;;;;;;13.57;8.52;;;;;;;0.98;62.11;95411.44;5007408;28;20187;-76
2024/01/20 11:00:45;;;;;;;10.85;7.60;;;;;;;0.96;61.97;95397.47;5024699;28;20463;-77
2024/01/20 11:03:11;;;;;;;10.68;7.30;;;;;;;0.97;62.10;95399.81;5025141;28;20029;-78
2024/01/20 11:05:36;;;;;;;11.77;7.70;;;;;;;1.03;62.37;95398.38;5023606;28;20032;-79
2024/01/20 11:08:06;;;;;;;13.18;8.00;;;;;;;1.01;62.05;95397.94;5024816;28;20156;-80
2024/01/20 11:10:45;;;;;;;12.77;7.72;;;;;;;1.06;62.17;95396.84;5025059;28;20419;-79
2024/01/20 11:13:13;;;;;;;10.63;5.97;;;;;;;1.16;61.60;95403.56;5024639;28;20025;-79
2024/01/20 11:15:39;;;;;;;10.43;6.90;;;;;;;1.10;62.00;95403.09;5025321;28;20040;-76
2024/01/20 11:18:25;;;;;;;13.82;7.22;;;;;;;1.04;61.80;95396.44;5024435;28;20045;-78
2024/01/20 11:20:56;;;;;;;9.65;7.10;;;;;;;1.08;62.08;95404.59;5024949;28;20021;-79
2024/01/20 11:23:22;;;;;;;9.65;7.30;;;;;;;1.03;62.02;95401.06;5024999;28;20064;-82
2024/01/20 11:25:47;;;;;;;13.23;7.90;;;;;;;1.08;62.03;95402.66;5024720;28;20053;-78
2024/01/20 11:28:25;;;;;;;12.88;7.75;;;;;;;1.01;61.89;95405.28;5025019;28;20029;-77
2024/01/20 11:30:50;;;;;;;16.48;10.00;;;;;;;0.85;63.16;95400.00;5024070;28;20476;-77
2024/01/20 11:33:16;;;;;;;12.48;8.10;;;;;;;0.93;63.15;95399.00;5024786;28;20103;-76
2024/01/20 11:35:41;;;;;;;12.38;7.70;;;;;;;0.95;62.93;95404.81;5024143;28;20520;-78